sensor_id;sensor_type;location;lat;lon;timestamp;P1;durP1;ratioP1;P2;durP2;ratioP2
27257;SDS011;62045;49.986;8.672;2022-09-13T00:00:17;3.17;;;2.05;;
27257;SDS011;62045;49.986;8.672;2022-09-13T00:05:19;3.95;;;2.35;;
27257;SDS011;62045;49.986;8.672;2022-09-13T00:10:20;3.05;;;2.20;;
27257;SDS011;62045;49.986;8.672;2022-09-13T00:15:21;3.33;;;2.22;;
27257;SDS011;62045;49.986;8.672;2022-09-13T00:20:23;2.33;;;1.77;;
27257;SDS011;62045;49.986;8.672;2022-09-13T00:25:24;3.03;;;1.60;;
27257;SDS011;62045;49.986;8.672;2022-09-13T00:30:25;3.03;;;1.90;;
27257;SDS011;62045;49.986;8.672;2022-09-13T00:35:27;2.60;;;1.90;;
27257;SDS011;62045;49.986;8.672;2022-09-13T00:40:28;3.83;;;1.85;;
27257;SDS011;62045;49.986;8.672;2022-09-13T00:45:29;2.88;;;2.00;;
27257;SDS011;62045;49.986;8.672;2022-09-13T00:50:32;3.53;;;2.00;;
27257;SDS011;62045;49.986;8.672;2022-09-13T00:55:37;2.60;;;1.80;;
27257;SDS011;62045;49.986;8.672;2022-09-13T01:00:42;2.92;;;1.95;;
27257;SDS011;62045;49.986;8.672;2022-09-13T01:05:46;3.05;;;2.15;;
27257;SDS011;62045;49.986;8.672;2022-09-13T01:10:51;2.90;;;2.00;;
27257;SDS011;62045;49.986;8.672;2022-09-13T01:15:53;3.58;;;2.10;;
27257;SDS011;62045;49.986;8.672;2022-09-13T01:21:03;2.60;;;1.77;;
27257;SDS011;62045;49.986;8.672;2022-09-13T01:26:48;2.78;;;1.90;;
27257;SDS011;62045;49.986;8.672;2022-09-13T01:37:32;2.90;;;1.90;;
27257;SDS011;62045;49.986;8.672;2022-09-13T01:42:47;3.78;;;1.70;;
27257;SDS011;62045;49.986;8.672;2022-09-13T01:47:58;2.80;;;1.80;;
27257;SDS011;62045;49.986;8.672;2022-09-13T01:53:04;3.05;;;1.90;;
27257;SDS011;62045;49.986;8.672;2022-09-13T01:58:12;3.42;;;2.10;;
27257;SDS011;62045;49.986;8.672;2022-09-13T02:03:22;3.25;;;2.10;;
27257;SDS011;62045;49.986;8.672;2022-09-13T02:08:31;2.67;;;1.85;;
27257;SDS011;62045;49.986;8.672;2022-09-13T02:13:37;2.55;;;1.90;;
27257;SDS011;62045;49.986;8.672;2022-09-13T02:18:44;2.80;;;1.65;;
27257;SDS011;62045;49.986;8.672;2022-09-13T02:23:49;3.10;;;1.90;;
27257;SDS011;62045;49.986;8.672;2022-09-13T02:28:53;2.65;;;1.73;;
27257;SDS011;62045;49.986;8.672;2022-09-13T02:33:59;3.00;;;1.63;;
27257;SDS011;62045;49.986;8.672;2022-09-13T02:39:04;2.38;;;1.58;;
27257;SDS011;62045;49.986;8.672;2022-09-13T02:44:09;2.08;;;1.42;;
27257;SDS011;62045;49.986;8.672;2022-09-13T02:49:16;2.83;;;1.58;;
27257;SDS011;62045;49.986;8.672;2022-09-13T02:54:24;2.55;;;1.67;;
27257;SDS011;62045;49.986;8.672;2022-09-13T02:59:32;2.45;;;1.67;;
27257;SDS011;62045;49.986;8.672;2022-09-13T03:04:34;2.95;;;1.95;;
27257;SDS011;62045;49.986;8.672;2022-09-13T03:09:35;2.47;;;1.70;;
27257;SDS011;62045;49.986;8.672;2022-09-13T03:14:39;2.78;;;1.80;;
27257;SDS011;62045;49.986;8.672;2022-09-13T03:25:07;2.70;;;1.77;;
27257;SDS011;62045;49.986;8.672;2022-09-13T03:30:19;2.45;;;1.55;;
27257;SDS011;62045;49.986;8.672;2022-09-13T03:35:24;2.60;;;1.65;;
27257;SDS011;62045;49.986;8.672;2022-09-13T03:40:33;3.35;;;1.60;;
27257;SDS011;62045;49.986;8.672;2022-09-13T03:45:38;2.75;;;1.50;;
27257;SDS011;62045;49.986;8.672;2022-09-13T03:50:45;2.63;;;1.70;;
27257;SDS011;62045;49.986;8.672;2022-09-13T03:55:47;2.55;;;1.58;;
27257;SDS011;62045;49.986;8.672;2022-09-13T04:00:48;2.47;;;1.67;;
27257;SDS011;62045;49.986;8.672;2022-09-13T04:05:51;2.38;;;1.58;;
27257;SDS011;62045;49.986;8.672;2022-09-13T04:10:51;2.97;;;1.60;;
27257;SDS011;62045;49.986;8.672;2022-09-13T04:15:52;2.20;;;1.30;;
27257;SDS011;62045;49.986;8.672;2022-09-13T04:20:56;3.63;;;1.70;;
27257;SDS011;62045;49.986;8.672;2022-09-13T04:26:00;2.60;;;1.80;;
27257;SDS011;62045;49.986;8.672;2022-09-13T04:31:01;2.28;;;1.42;;
27257;SDS011;62045;49.986;8.672;2022-09-13T04:36:04;3.38;;;1.80;;
27257;SDS011;62045;49.986;8.672;2022-09-13T04:41:05;2.40;;;1.87;;
27257;SDS011;62045;49.986;8.672;2022-09-13T04:46:06;3.10;;;1.90;;
27257;SDS011;62045;49.986;8.672;2022-09-13T04:51:08;2.20;;;1.60;;
27257;SDS011;62045;49.986;8.672;2022-09-13T04:56:09;2.75;;;1.90;;
27257;SDS011;62045;49.986;8.672;2022-09-13T05:01:10;2.95;;;1.50;;
27257;SDS011;62045;49.986;8.672;2022-09-13T05:06:13;2.80;;;1.58;;
27257;SDS011;62045;49.986;8.672;2022-09-13T05:11:14;2.60;;;1.45;;
27257;SDS011;62045;49.986;8.672;2022-09-13T05:16:15;2.47;;;1.58;;
27257;SDS011;62045;49.986;8.672;2022-09-13T05:21:18;2.35;;;1.80;;
27257;SDS011;62045;49.986;8.672;2022-09-13T05:26:19;2.47;;;1.77;;
27257;SDS011;62045;49.986;8.672;2022-09-13T05:31:22;2.60;;;1.75;;
27257;SDS011;62045;49.986;8.672;2022-09-13T05:36:25;2.50;;;1.60;;
27257;SDS011;62045;49.986;8.672;2022-09-13T05:41:27;2.80;;;1.63;;
27257;SDS011;62045;49.986;8.672;2022-09-13T05:46:28;2.05;;;1.58;;
27257;SDS011;62045;49.986;8.672;2022-09-13T05:51:30;3.15;;;1.73;;
27257;SDS011;62045;49.986;8.672;2022-09-13T05:56:31;3.40;;;1.85;;
27257;SDS011;62045;49.986;8.672;2022-09-13T06:01:31;4.05;;;1.50;;
27257;SDS011;62045;49.986;8.672;2022-09-13T06:06:34;4.25;;;1.80;;
27257;SDS011;62045;49.986;8.672;2022-09-13T06:11:35;3.42;;;1.70;;
27257;SDS011;62045;49.986;8.672;2022-09-13T06:16:35;2.40;;;1.63;;
27257;SDS011;62045;49.986;8.672;2022-09-13T06:21:38;3.38;;;2.08;;
27257;SDS011;62045;49.986;8.672;2022-09-13T06:26:38;3.25;;;1.73;;
27257;SDS011;62045;49.986;8.672;2022-09-13T06:31:39;3.33;;;1.67;;
27257;SDS011;62045;49.986;8.672;2022-09-13T06:36:41;4.13;;;1.80;;
27257;SDS011;62045;49.986;8.672;2022-09-13T06:41:42;3.05;;;1.67;;
27257;SDS011;62045;49.986;8.672;2022-09-13T06:46:43;3.30;;;1.42;;
27257;SDS011;62045;49.986;8.672;2022-09-13T06:51:45;3.10;;;1.70;;
27257;SDS011;62045;49.986;8.672;2022-09-13T06:56:46;2.28;;;1.48;;
27257;SDS011;62045;49.986;8.672;2022-09-13T07:01:47;3.55;;;1.70;;
27257;SDS011;62045;49.986;8.672;2022-09-13T07:06:49;4.05;;;1.80;;
27257;SDS011;62045;49.986;8.672;2022-09-13T07:11:51;2.42;;;1.30;;
27257;SDS011;62045;49.986;8.672;2022-09-13T07:16:53;3.97;;;1.98;;
27257;SDS011;62045;49.986;8.672;2022-09-13T07:21:55;2.53;;;1.67;;
27257;SDS011;62045;49.986;8.672;2022-09-13T07:26:57;6.40;;;1.75;;
27257;SDS011;62045;49.986;8.672;2022-09-13T07:31:58;4.20;;;1.80;;
27257;SDS011;62045;49.986;8.672;2022-09-13T07:37:00;3.17;;;1.95;;
27257;SDS011;62045;49.986;8.672;2022-09-13T07:42:01;4.10;;;1.98;;
27257;SDS011;62045;49.986;8.672;2022-09-13T07:47:01;4.13;;;1.98;;
27257;SDS011;62045;49.986;8.672;2022-09-13T07:52:04;2.95;;;1.80;;
27257;SDS011;62045;49.986;8.672;2022-09-13T07:57:04;3.35;;;1.92;;
27257;SDS011;62045;49.986;8.672;2022-09-13T08:02:07;5.97;;;1.73;;
27257;SDS011;62045;49.986;8.672;2022-09-13T08:07:10;3.47;;;1.60;;
27257;SDS011;62045;49.986;8.672;2022-09-13T08:12:11;7.68;;;2.17;;
27257;SDS011;62045;49.986;8.672;2022-09-13T08:17:11;5.97;;;1.90;;
27257;SDS011;62045;49.986;8.672;2022-09-13T08:22:13;3.33;;;1.70;;
27257;SDS011;62045;49.986;8.672;2022-09-13T08:27:14;3.00;;;1.63;;
27257;SDS011;62045;49.986;8.672;2022-09-13T08:32:15;3.50;;;1.90;;
27257;SDS011;62045;49.986;8.672;2022-09-13T08:37:17;2.83;;;1.55;;
27257;SDS011;62045;49.986;8.672;2022-09-13T08:42:20;5.32;;;2.00;;
27257;SDS011;62045;49.986;8.672;2022-09-13T08:47:33;4.32;;;1.98;;
27257;SDS011;62045;49.986;8.672;2022-09-13T08:52:43;3.00;;;1.67;;
27257;SDS011;62045;49.986;8.672;2022-09-13T08:57:58;3.75;;;1.48;;
27257;SDS011;62045;49.986;8.672;2022-09-13T09:03:11;2.83;;;1.63;;
27257;SDS011;62045;49.986;8.672;2022-09-13T09:08:28;2.78;;;1.60;;
27257;SDS011;62045;49.986;8.672;2022-09-13T09:13:33;3.70;;;1.83;;
27257;SDS011;62045;49.986;8.672;2022-09-13T09:18:37;3.35;;;1.98;;
27257;SDS011;62045;49.986;8.672;2022-09-13T09:23:44;2.53;;;1.75;;
27257;SDS011;62045;49.986;8.672;2022-09-13T09:28:49;3.45;;;1.88;;
27257;SDS011;62045;49.986;8.672;2022-09-13T09:33:56;3.08;;;1.80;;
27257;SDS011;62045;49.986;8.672;2022-09-13T09:39:06;2.78;;;1.88;;
27257;SDS011;62045;49.986;8.672;2022-09-13T09:44:16;3.15;;;2.00;;
27257;SDS011;62045;49.986;8.672;2022-09-13T09:49:18;3.90;;;2.17;;
27257;SDS011;62045;49.986;8.672;2022-09-13T09:54:26;5.45;;;1.90;;
27257;SDS011;62045;49.986;8.672;2022-09-13T09:59:28;10.73;;;2.20;;
27257;SDS011;62045;49.986;8.672;2022-09-13T10:04:30;4.53;;;2.03;;
27257;SDS011;62045;49.986;8.672;2022-09-13T10:09:32;7.72;;;2.00;;
27257;SDS011;62045;49.986;8.672;2022-09-13T10:14:36;4.25;;;1.98;;
27257;SDS011;62045;49.986;8.672;2022-09-13T10:19:38;3.87;;;2.00;;
27257;SDS011;62045;49.986;8.672;2022-09-13T10:24:40;3.50;;;1.75;;
27257;SDS011;62045;49.986;8.672;2022-09-13T10:29:42;3.20;;;2.00;;
27257;SDS011;62045;49.986;8.672;2022-09-13T10:34:48;2.90;;;1.80;;
27257;SDS011;62045;49.986;8.672;2022-09-13T10:39:54;2.95;;;2.05;;
27257;SDS011;62045;49.986;8.672;2022-09-13T10:45:00;2.70;;;1.65;;
27257;SDS011;62045;49.986;8.672;2022-09-13T10:50:11;2.90;;;1.95;;
27257;SDS011;62045;49.986;8.672;2022-09-13T10:55:28;4.68;;;2.00;;
27257;SDS011;62045;49.986;8.672;2022-09-13T11:00:34;5.05;;;2.03;;
27257;SDS011;62045;49.986;8.672;2022-09-13T11:05:49;4.35;;;1.85;;
27257;SDS011;62045;49.986;8.672;2022-09-13T11:11:02;3.70;;;1.90;;
27257;SDS011;62045;49.986;8.672;2022-09-13T11:16:13;4.72;;;2.20;;
27257;SDS011;62045;49.986;8.672;2022-09-13T11:21:29;3.67;;;2.05;;
27257;SDS011;62045;49.986;8.672;2022-09-13T11:26:50;3.15;;;1.73;;
27257;SDS011;62045;49.986;8.672;2022-09-13T11:32:00;4.25;;;2.10;;
27257;SDS011;62045;49.986;8.672;2022-09-13T11:37:13;6.57;;;2.20;;
27257;SDS011;62045;49.986;8.672;2022-09-13T11:42:28;3.40;;;2.10;;
27257;SDS011;62045;49.986;8.672;2022-09-13T11:47:43;3.85;;;1.88;;
27257;SDS011;62045;49.986;8.672;2022-09-13T11:52:58;3.08;;;2.00;;
27257;SDS011;62045;49.986;8.672;2022-09-13T11:58:16;5.03;;;2.00;;
27257;SDS011;62045;49.986;8.672;2022-09-13T12:03:22;5.47;;;1.90;;
27257;SDS011;62045;49.986;8.672;2022-09-13T12:08:30;4.07;;;2.25;;
27257;SDS011;62045;49.986;8.672;2022-09-13T12:13:38;4.88;;;1.98;;
27257;SDS011;62045;49.986;8.672;2022-09-13T12:18:43;3.78;;;1.98;;
27257;SDS011;62045;49.986;8.672;2022-09-13T12:23:49;7.18;;;2.72;;
27257;SDS011;62045;49.986;8.672;2022-09-13T12:28:57;5.47;;;2.80;;
27257;SDS011;62045;49.986;8.672;2022-09-13T12:34:03;14.20;;;5.57;;
27257;SDS011;62045;49.986;8.672;2022-09-13T12:39:11;10.07;;;4.90;;
27257;SDS011;62045;49.986;8.672;2022-09-13T12:44:43;16.57;;;6.70;;
27257;SDS011;62045;49.986;8.672;2022-09-13T12:50:10;22.35;;;8.55;;
27257;SDS011;62045;49.986;8.672;2022-09-13T12:55:27;20.65;;;8.13;;
27257;SDS011;62045;49.986;8.672;2022-09-13T13:00:38;21.80;;;8.43;;
27257;SDS011;62045;49.986;8.672;2022-09-13T13:05:46;23.92;;;9.73;;
27257;SDS011;62045;49.986;8.672;2022-09-13T13:10:58;18.42;;;8.23;;
27257;SDS011;62045;49.986;8.672;2022-09-13T13:16:03;21.45;;;9.57;;
27257;SDS011;62045;49.986;8.672;2022-09-13T13:21:24;20.63;;;9.43;;
27257;SDS011;62045;49.986;8.672;2022-09-13T13:26:43;27.60;;;10.55;;
27257;SDS011;62045;49.986;8.672;2022-09-13T13:42:36;23.23;;;10.95;;
27257;SDS011;62045;49.986;8.672;2022-09-13T13:47:51;28.52;;;10.88;;
27257;SDS011;62045;49.986;8.672;2022-09-13T13:53:18;23.98;;;10.63;;
27257;SDS011;62045;49.986;8.672;2022-09-13T13:58:24;23.33;;;9.57;;
27257;SDS011;62045;49.986;8.672;2022-09-13T14:03:46;22.80;;;9.15;;
27257;SDS011;62045;49.986;8.672;2022-09-13T14:08:54;23.15;;;8.70;;
27257;SDS011;62045;49.986;8.672;2022-09-13T14:14:14;21.70;;;8.13;;
27257;SDS011;62045;49.986;8.672;2022-09-13T14:19:27;23.98;;;8.38;;
27257;SDS011;62045;49.986;8.672;2022-09-13T14:24:34;17.15;;;8.30;;
27257;SDS011;62045;49.986;8.672;2022-09-13T14:29:36;15.18;;;6.63;;
27257;SDS011;62045;49.986;8.672;2022-09-13T14:34:48;14.90;;;6.32;;
27257;SDS011;62045;49.986;8.672;2022-09-13T14:39:55;13.10;;;5.55;;
27257;SDS011;62045;49.986;8.672;2022-09-13T14:44:57;15.13;;;6.15;;
27257;SDS011;62045;49.986;8.672;2022-09-13T14:50:00;16.95;;;6.20;;
27257;SDS011;62045;49.986;8.672;2022-09-13T14:55:07;11.88;;;5.53;;
27257;SDS011;62045;49.986;8.672;2022-09-13T15:00:15;10.65;;;4.80;;
27257;SDS011;62045;49.986;8.672;2022-09-13T15:05:19;11.65;;;5.10;;
27257;SDS011;62045;49.986;8.672;2022-09-13T15:10:23;10.20;;;4.55;;
27257;SDS011;62045;49.986;8.672;2022-09-13T15:15:31;11.00;;;5.00;;
27257;SDS011;62045;49.986;8.672;2022-09-13T15:20:50;10.73;;;4.57;;
27257;SDS011;62045;49.986;8.672;2022-09-13T15:25:54;10.07;;;4.47;;
27257;SDS011;62045;49.986;8.672;2022-09-13T15:30:56;9.18;;;4.20;;
27257;SDS011;62045;49.986;8.672;2022-09-13T15:36:24;9.95;;;4.05;;
27257;SDS011;62045;49.986;8.672;2022-09-13T15:41:28;7.82;;;3.63;;
27257;SDS011;62045;49.986;8.672;2022-09-13T15:46:30;7.60;;;4.03;;
27257;SDS011;62045;49.986;8.672;2022-09-13T15:51:35;9.57;;;4.75;;
27257;SDS011;62045;49.986;8.672;2022-09-13T15:56:36;9.23;;;4.30;;
27257;SDS011;62045;49.986;8.672;2022-09-13T16:01:37;9.35;;;4.25;;
27257;SDS011;62045;49.986;8.672;2022-09-13T16:06:39;7.82;;;4.13;;
27257;SDS011;62045;49.986;8.672;2022-09-13T16:11:40;6.38;;;3.50;;
27257;SDS011;62045;49.986;8.672;2022-09-13T16:16:41;7.85;;;3.80;;
27257;SDS011;62045;49.986;8.672;2022-09-13T16:21:43;7.13;;;3.67;;
27257;SDS011;62045;49.986;8.672;2022-09-13T16:26:44;7.13;;;3.67;;
27257;SDS011;62045;49.986;8.672;2022-09-13T16:31:45;6.75;;;3.67;;
27257;SDS011;62045;49.986;8.672;2022-09-13T16:36:47;8.43;;;3.65;;
27257;SDS011;62045;49.986;8.672;2022-09-13T16:41:48;6.47;;;3.13;;
27257;SDS011;62045;49.986;8.672;2022-09-13T16:46:49;6.32;;;3.28;;
27257;SDS011;62045;49.986;8.672;2022-09-13T16:51:51;8.20;;;3.13;;
27257;SDS011;62045;49.986;8.672;2022-09-13T16:56:52;6.07;;;3.17;;
27257;SDS011;62045;49.986;8.672;2022-09-13T17:01:53;7.78;;;3.05;;
27257;SDS011;62045;49.986;8.672;2022-09-13T17:06:55;6.65;;;2.83;;
27257;SDS011;62045;49.986;8.672;2022-09-13T17:11:56;5.65;;;2.53;;
27257;SDS011;62045;49.986;8.672;2022-09-13T17:16:58;6.82;;;3.28;;
27257;SDS011;62045;49.986;8.672;2022-09-13T17:22:01;4.82;;;2.55;;
27257;SDS011;62045;49.986;8.672;2022-09-13T17:27:03;6.72;;;3.17;;
27257;SDS011;62045;49.986;8.672;2022-09-13T17:32:05;6.05;;;2.88;;
27257;SDS011;62045;49.986;8.672;2022-09-13T17:37:07;8.30;;;2.95;;
27257;SDS011;62045;49.986;8.672;2022-09-13T17:42:08;5.65;;;3.00;;
27257;SDS011;62045;49.986;8.672;2022-09-13T17:47:09;5.38;;;2.90;;
27257;SDS011;62045;49.986;8.672;2022-09-13T17:52:11;4.85;;;2.97;;
27257;SDS011;62045;49.986;8.672;2022-09-13T17:57:12;4.50;;;3.00;;
27257;SDS011;62045;49.986;8.672;2022-09-13T18:02:13;6.03;;;2.92;;
27257;SDS011;62045;49.986;8.672;2022-09-13T18:07:15;6.28;;;3.08;;
27257;SDS011;62045;49.986;8.672;2022-09-13T18:12:16;4.25;;;2.53;;
27257;SDS011;62045;49.986;8.672;2022-09-13T18:17:16;4.50;;;2.75;;
27257;SDS011;62045;49.986;8.672;2022-09-13T18:22:19;3.67;;;2.70;;
27257;SDS011;62045;49.986;8.672;2022-09-13T18:27:20;4.93;;;2.88;;
27257;SDS011;62045;49.986;8.672;2022-09-13T18:32:20;4.22;;;2.60;;
27257;SDS011;62045;49.986;8.672;2022-09-13T18:37:23;5.95;;;2.85;;
27257;SDS011;62045;49.986;8.672;2022-09-13T18:42:24;4.25;;;2.53;;
27257;SDS011;62045;49.986;8.672;2022-09-13T18:47:25;4.85;;;2.33;;
27257;SDS011;62045;49.986;8.672;2022-09-13T18:52:27;5.28;;;2.88;;
27257;SDS011;62045;49.986;8.672;2022-09-13T18:57:28;4.57;;;2.78;;
27257;SDS011;62045;49.986;8.672;2022-09-13T19:02:29;3.40;;;2.33;;
27257;SDS011;62045;49.986;8.672;2022-09-13T19:07:31;4.45;;;2.50;;
27257;SDS011;62045;49.986;8.672;2022-09-13T19:12:32;4.10;;;2.47;;
27257;SDS011;62045;49.986;8.672;2022-09-13T19:17:33;5.95;;;3.10;;
27257;SDS011;62045;49.986;8.672;2022-09-13T19:22:35;4.55;;;2.80;;
27257;SDS011;62045;49.986;8.672;2022-09-13T19:27:36;4.85;;;2.83;;
27257;SDS011;62045;49.986;8.672;2022-09-13T19:32:36;4.53;;;2.95;;
27257;SDS011;62045;49.986;8.672;2022-09-13T19:37:39;4.90;;;2.60;;
27257;SDS011;62045;49.986;8.672;2022-09-13T19:42:39;3.60;;;2.47;;
27257;SDS011;62045;49.986;8.672;2022-09-13T19:47:40;3.65;;;2.53;;
27257;SDS011;62045;49.986;8.672;2022-09-13T19:52:42;4.03;;;2.58;;
27257;SDS011;62045;49.986;8.672;2022-09-13T19:57:43;4.57;;;2.55;;
27257;SDS011;62045;49.986;8.672;2022-09-13T20:02:46;4.53;;;2.65;;
27257;SDS011;62045;49.986;8.672;2022-09-13T20:07:48;5.25;;;2.50;;
27257;SDS011;62045;49.986;8.672;2022-09-13T20:12:49;4.15;;;2.60;;
27257;SDS011;62045;49.986;8.672;2022-09-13T20:17:50;4.50;;;2.60;;
27257;SDS011;62045;49.986;8.672;2022-09-13T20:22:52;3.72;;;2.20;;
27257;SDS011;62045;49.986;8.672;2022-09-13T20:27:53;5.15;;;2.50;;
27257;SDS011;62045;49.986;8.672;2022-09-13T20:32:54;5.28;;;2.05;;
27257;SDS011;62045;49.986;8.672;2022-09-13T20:37:56;4.07;;;2.30;;
27257;SDS011;62045;49.986;8.672;2022-09-13T20:42:57;4.97;;;2.50;;
27257;SDS011;62045;49.986;8.672;2022-09-13T20:47:58;4.72;;;2.28;;
27257;SDS011;62045;49.986;8.672;2022-09-13T20:53:00;2.75;;;1.85;;
27257;SDS011;62045;49.986;8.672;2022-09-13T20:58:01;2.85;;;2.00;;
27257;SDS011;62045;49.986;8.672;2022-09-13T21:03:02;4.78;;;2.40;;
27257;SDS011;62045;49.986;8.672;2022-09-13T21:08:04;3.28;;;2.00;;
27257;SDS011;62045;49.986;8.672;2022-09-13T21:13:05;3.33;;;2.10;;
27257;SDS011;62045;49.986;8.672;2022-09-13T21:18:06;3.33;;;1.90;;
27257;SDS011;62045;49.986;8.672;2022-09-13T21:23:08;4.10;;;2.28;;
27257;SDS011;62045;49.986;8.672;2022-09-13T21:28:09;3.67;;;2.38;;
27257;SDS011;62045;49.986;8.672;2022-09-13T21:33:10;3.03;;;1.90;;
27257;SDS011;62045;49.986;8.672;2022-09-13T21:38:12;5.70;;;2.30;;
27257;SDS011;62045;49.986;8.672;2022-09-13T21:43:13;3.05;;;2.08;;
27257;SDS011;62045;49.986;8.672;2022-09-13T21:48:13;4.07;;;2.30;;
27257;SDS011;62045;49.986;8.672;2022-09-13T21:53:15;2.83;;;1.90;;
27257;SDS011;62045;49.986;8.672;2022-09-13T21:58:16;4.57;;;2.63;;
27257;SDS011;62045;49.986;8.672;2022-09-13T22:03:17;3.00;;;2.10;;
27257;SDS011;62045;49.986;8.672;2022-09-13T22:08:21;3.65;;;2.20;;
27257;SDS011;62045;49.986;8.672;2022-09-13T22:13:22;3.05;;;2.15;;
27257;SDS011;62045;49.986;8.672;2022-09-13T22:18:22;3.42;;;2.00;;
27257;SDS011;62045;49.986;8.672;2022-09-13T22:23:25;4.10;;;2.25;;
27257;SDS011;62045;49.986;8.672;2022-09-13T22:28:27;3.40;;;2.28;;
27257;SDS011;62045;49.986;8.672;2022-09-13T22:33:28;2.95;;;1.98;;
27257;SDS011;62045;49.986;8.672;2022-09-13T22:38:30;3.20;;;1.95;;
27257;SDS011;62045;49.986;8.672;2022-09-13T22:43:32;3.53;;;2.33;;
27257;SDS011;62045;49.986;8.672;2022-09-13T22:48:33;3.70;;;1.95;;
27257;SDS011;62045;49.986;8.672;2022-09-13T22:53:36;2.88;;;1.85;;
27257;SDS011;62045;49.986;8.672;2022-09-13T22:58:38;3.75;;;2.35;;
27257;SDS011;62045;49.986;8.672;2022-09-13T23:03:41;3.60;;;2.00;;
27257;SDS011;62045;49.986;8.672;2022-09-13T23:08:44;3.20;;;2.00;;
27257;SDS011;62045;49.986;8.672;2022-09-13T23:13:47;3.55;;;2.08;;
27257;SDS011;62045;49.986;8.672;2022-09-13T23:18:49;3.50;;;2.37;;
27257;SDS011;62045;49.986;8.672;2022-09-13T23:23:51;4.53;;;2.28;;
27257;SDS011;62045;49.986;8.672;2022-09-13T23:28:53;2.60;;;1.92;;
27257;SDS011;62045;49.986;8.672;2022-09-13T23:33:56;3.15;;;1.92;;
27257;SDS011;62045;49.986;8.672;2022-09-13T23:38:59;2.65;;;2.00;;
27257;SDS011;62045;49.986;8.672;2022-09-13T23:44:01;3.40;;;2.03;;
27257;SDS011;62045;49.986;8.672;2022-09-13T23:49:02;2.92;;;2.05;;
27257;SDS011;62045;49.986;8.672;2022-09-13T23:54:05;2.70;;;1.73;;
27257;SDS011;62045;49.986;8.672;2022-09-13T23:59:06;4.17;;;2.10;;
